Time;durP1;ratioP1;P1;durP2;ratioP2;P2;SDS_P1;SDS_P2;PMS_P1;PMS_P2;Temp;Humidity;BMP_temperature;BMP_pressure;BME280_temperature;BME280_humidity;BME280_pressure;Samples;Min_cycle;Max_cycle;Signal;HPM_P1;HPM_P2
2021/09/02 00:00:00;;;;;;;20.88;11.02;;;15.50;99.90;;;;;;6182254;23;20024;-81
2021/09/02 00:02:45;;;;;;;20.08;10.95;;;15.50;99.90;;;;;;6181549;23;20033;-80
2021/09/02 00:05:19;;;;;;;17.15;9.95;;;15.50;99.90;;;;;;6180825;23;20088;-82
2021/09/02 00:07:50;;;;;;;20.30;9.05;;;15.50;99.90;;;;;;6181412;23;20020;-82
2021/09/02 00:10:26;;;;;;;18.50;10.55;;;15.50;99.90;;;;;;6169380;23;20029;-82
2021/09/02 00:13:08;;;;;;;;;;;;;;;;;;;;;
2021/09/02 00:15:41;;;;;;;21.80;10.45;;;15.50;99.90;;;;;;6174927;22;20020;-81
2021/09/02 00:18:30;;;;;;;21.65;11.05;;;15.50;99.90;;;;;;6191558;23;20071;-81
2021/09/02 00:21:08;;;;;;;22.15;10.32;;;15.40;99.90;;;;;;6203250;23;20026;-81
2021/09/02 00:23:40;;;;;;;23.60;11.43;;;15.50;99.90;;;;;;6215678;23;20099;-79
2021/09/02 00:26:21;;;;;;;19.55;10.07;;;15.40;99.90;;;;;;6217848;22;20024;-82
2021/09/02 00:28:48;;;;;;;25.63;10.90;;;15.50;99.90;;;;;;6218451;23;20456;-81
2021/09/02 00:31:26;;;;;;;;;;;;;;;;;;;;;
2021/09/02 00:33:58;;;;;;;21.73;11.43;;;15.40;99.90;;;;;;6213602;23;20023;-80
2021/09/02 00:36:34;;;;;;;24.48;10.80;;;15.40;99.90;;;;;;6148366;23;20028;-81
2021/09/02 00:39:10;;;;;;;19.25;11.02;;;15.40;99.90;;;;;;6204899;23;20064;-82
2021/09/02 00:41:44;;;;;;;19.42;11.48;;;15.40;99.90;;;;;;6205489;23;20012;-82
2021/09/02 00:44:11;;;;;;;23.05;11.63;;;15.40;99.90;;;;;;6192487;22;20043;-81
2021/09/02 00:46:38;;;;;;;24.70;11.65;;;15.40;99.90;;;;;;6218424;23;20012;-81
2021/09/02 00:49:08;;;;;;;20.13;11.45;;;15.40;99.90;;;;;;6197418;23;20090;-81
2021/09/02 00:51:35;;;;;;;25.25;12.05;;;15.40;99.90;;;;;;6218650;23;20388;-82
2021/09/02 00:54:04;;;;;;;22.42;11.65;;;15.40;99.90;;;;;;6219297;23;20020;-82
2021/09/02 00:56:34;;;;;;;20.63;12.15;;;15.40;99.90;;;;;;6205505;23;20024;-81
2021/09/02 00:59:01;;;;;;;21.05;11.13;;;15.40;99.90;;;;;;6204401;23;20091;-81
2021/09/02 01:01:31;;;;;;;24.55;12.07;;;15.40;99.90;;;;;;6216566;22;20016;-79
2021/09/02 01:04:04;;;;;;;22.02;11.90;;;15.40;99.90;;;;;;6218403;23;20024;-81
2021/09/02 01:06:31;;;;;;;26.35;12.10;;;15.40;99.90;;;;;;6216797;23;20028;-81
2021/09/02 01:08:58;;;;;;;25.60;12.70;;;15.40;99.90;;;;;;6218193;23;20016;-81
2021/09/02 01:11:45;;;;;;;19.85;11.77;;;15.40;99.90;;;;;;6221878;22;20034;-81
2021/09/02 01:14:19;;;;;;;25.13;12.25;;;15.30;99.90;;;;;;6217428;22;20433;-81
2021/09/02 01:16:49;;;;;;;25.70;12.30;;;15.30;99.90;;;;;;6207243;23;20020;-79
2021/09/02 01:19:20;;;;;;;24.55;12.75;;;15.30;99.90;;;;;;6217534;22;20602;-82
2021/09/02 01:21:53;;;;;;;20.13;11.65;;;15.30;99.90;;;;;;6217682;23;20020;-82
2021/09/02 01:24:20;;;;;;;28.15;12.63;;;15.30;99.90;;;;;;6217260;22;20017;-80
2021/09/02 01:26:48;;;;;;;24.15;12.80;;;15.30;99.90;;;;;;6207045;23;20083;-80
2021/09/02 01:29:15;;;;;;;23.47;13.07;;;15.30;99.90;;;;;;6217451;22;20445;-81
2021/09/02 01:31:43;;;;;;;24.95;12.65;;;15.30;99.90;;;;;;6218434;23;20727;-80
2021/09/02 01:34:16;;;;;;;22.27;13.10;;;15.30;99.90;;;;;;6217307;22;20027;-82
2021/09/02 01:36:43;;;;;;;28.85;12.52;;;15.30;99.90;;;;;;6218855;23;20016;-81
2021/09/02 01:39:17;;;;;;;26.98;14.10;;;15.30;99.90;;;;;;6217159;22;20392;-81
2021/09/02 01:41:44;;;;;;;24.02;12.73;;;15.30;99.90;;;;;;6218753;23;20019;-81
2021/09/02 01:44:11;;;;;;;24.25;13.45;;;15.30;99.90;;;;;;6217894;22;20333;-81
2021/09/02 01:46:38;;;;;;;24.95;13.20;;;15.30;99.90;;;;;;6218772;23;20055;-81
2021/09/02 01:49:05;;;;;;;24.65;12.88;;;15.20;99.90;;;;;;6204427;23;20016;-81
2021/09/02 01:51:32;;;;;;;24.65;13.82;;;15.20;99.90;;;;;;6205540;23;20020;-82
2021/09/02 01:53:59;;;;;;;25.55;14.07;;;15.20;99.90;;;;;;6219032;23;20026;-81
2021/09/02 01:56:29;;;;;;;25.63;13.30;;;15.20;99.90;;;;;;6217527;22;20036;-81
2021/09/02 01:58:57;;;;;;;27.40;14.05;;;15.20;99.90;;;;;;6203963;23;20461;-82
2021/09/02 02:01:24;;;;;;;26.58;13.75;;;15.20;99.90;;;;;;6205917;22;20471;-81
2021/09/02 02:03:51;;;;;;;26.73;13.38;;;15.20;99.90;;;;;;6218392;23;20066;-79
2021/09/02 02:06:18;;;;;;;26.92;13.93;;;15.20;99.90;;;;;;6217587;22;20072;-81
2021/09/02 02:08:47;;;;;;;24.08;12.82;;;15.20;99.90;;;;;;6218640;23;20031;-81
2021/09/02 02:11:14;;;;;;;24.00;13.65;;;15.20;99.90;;;;;;6217787;22;20043;-79
2021/09/02 02:13:41;;;;;;;27.17;14.02;;;15.20;99.90;;;;;;6218333;23;20386;-77
2021/09/02 02:16:10;;;;;;;25.33;13.15;;;15.20;99.90;;;;;;6217670;22;20016;-76
2021/09/02 02:18:38;;;;;;;25.90;14.27;;;15.10;99.90;;;;;;6206438;23;20031;-76
2021/09/02 02:21:06;;;;;;;30.08;14.18;;;15.10;99.90;;;;;;6191521;23;20016;-77
2021/09/02 02:23:40;;;;;;;24.55;13.75;;;15.10;99.90;;;;;;6206038;23;20016;-76
2021/09/02 02:26:09;;;;;;;23.05;13.95;;;15.10;99.90;;;;;;6204326;22;20507;-76
2021/09/02 02:28:36;;;;;;;22.08;13.32;;;15.10;99.90;;;;;;6205573;23;20017;-76
2021/09/02 02:31:03;;;;;;;26.10;13.85;;;15.10;99.90;;;;;;6207557;23;20016;-76
2021/09/02 02:33:30;;;;;;;28.42;14.48;;;15.10;99.90;;;;;;6217115;23;20396;-76
2021/09/02 02:35:57;;;;;;;21.85;13.80;;;15.10;99.90;;;;;;6205252;23;20020;-77
2021/09/02 02:38:29;;;;;;;25.35;14.32;;;15.10;99.90;;;;;;6202714;23;20072;-76
2021/09/02 02:40:58;;;;;;;24.92;14.00;;;15.10;99.90;;;;;;6207102;23;20020;-77
2021/09/02 02:43:29;;;;;;;27.77;14.30;;;15.00;99.90;;;;;;6202068;23;20028;-77
2021/09/02 02:45:58;;;;;;;25.90;13.90;;;15.10;99.90;;;;;;6194331;23;20039;-77
2021/09/02 02:48:31;;;;;;;26.08;14.27;;;15.00;99.90;;;;;;6201667;23;20358;-76
2021/09/02 02:51:03;;;;;;;27.58;14.25;;;15.00;99.90;;;;;;6218920;23;20070;-76
2021/09/02 02:53:30;;;;;;;28.63;14.60;;;15.00;99.90;;;;;;6217263;23;20020;-76
2021/09/02 02:55:57;;;;;;;28.08;15.15;;;15.00;99.90;;;;;;6203884;23;20318;-76
2021/09/02 02:58:27;;;;;;;26.02;14.80;;;15.00;99.90;;;;;;6216295;22;20032;-76
2021/09/02 03:00:54;;;;;;;30.20;15.20;;;15.00;99.90;;;;;;6202236;23;20066;-77
2021/09/02 03:03:23;;;;;;;24.45;15.23;;;15.00;99.90;;;;;;6206396;22;20030;-76
2021/09/02 03:05:52;;;;;;;31.80;14.80;;;15.00;99.90;;;;;;6218170;23;20513;-76
2021/09/02 03:08:19;;;;;;;26.25;15.05;;;14.90;99.90;;;;;;6217198;22;20027;-76
2021/09/02 03:10:46;;;;;;;29.40;14.73;;;14.90;99.90;;;;;;6203031;23;20087;-76
2021/09/02 03:13:16;;;;;;;26.25;14.68;;;14.90;99.90;;;;;;6188592;23;20035;-76
2021/09/02 03:15:43;;;;;;;26.40;14.38;;;14.90;99.90;;;;;;6217459;23;20016;-77
2021/09/02 03:18:10;;;;;;;27.27;15.27;;;14.90;99.90;;;;;;6202590;23;20111;-76
2021/09/02 03:20:39;;;;;;;25.58;14.05;;;14.90;99.90;;;;;;6218538;23;20023;-76
2021/09/02 03:23:06;;;;;;;26.13;13.85;;;14.90;99.90;;;;;;6216804;22;20016;-76
2021/09/02 03:25:33;;;;;;;26.15;14.20;;;14.90;99.90;;;;;;6205978;23;20380;-76
2021/09/02 03:28:00;;;;;;;27.40;14.35;;;14.90;99.90;;;;;;6217942;23;20428;-76
2021/09/02 03:30:28;;;;;;;27.58;14.55;;;14.90;99.90;;;;;;6201935;23;20025;-77
2021/09/02 03:33:12;;;;;;;29.77;14.93;;;14.90;99.90;;;;;;6220106;22;20016;-77
2021/09/02 03:35:39;;;;;;;28.55;15.05;;;14.90;99.90;;;;;;6217664;23;20385;-76
2021/09/02 03:38:07;;;;;;;21.55;15.15;;;14.80;99.90;;;;;;6217607;22;20012;-76
2021/09/02 03:40:34;;;;;;;26.77;14.48;;;14.80;99.90;;;;;;6217548;23;20024;-76
2021/09/02 03:43:01;;;;;;;28.63;14.85;;;14.80;99.90;;;;;;6203463;23;20031;-76
2021/09/02 03:45:36;;;;;;;23.23;14.05;;;14.80;99.90;;;;;;6202740;22;20104;-76
2021/09/02 03:48:04;;;;;;;27.65;14.88;;;14.80;99.90;;;;;;6216888;23;20035;-76
2021/09/02 03:50:31;;;;;;;25.65;14.02;;;14.80;99.90;;;;;;6202281;23;20523;-76
2021/09/02 03:52:58;;;;;;;30.42;14.90;;;14.80;99.90;;;;;;6217794;23;20499;-76
2021/09/02 03:55:29;;;;;;;28.17;15.00;;;14.80;99.90;;;;;;6217202;22;20494;-76
2021/09/02 03:57:56;;;;;;;24.23;14.73;;;14.70;99.90;;;;;;6204219;23;20024;-76
2021/09/02 04:00:27;;;;;;;24.17;15.10;;;14.70;99.90;;;;;;6203340;23;20361;-76
2021/09/02 04:02:55;;;;;;;29.83;15.20;;;14.70;99.90;;;;;;6220153;23;20070;-76
2021/09/02 04:05:22;;;;;;;32.55;15.77;;;14.70;99.90;;;;;;6219151;22;20448;-76
2021/09/02 04:07:49;;;;;;;25.27;14.20;;;14.70;99.90;;;;;;6205695;23;20020;-76
2021/09/02 04:10:16;;;;;;;29.67;16.15;;;14.70;99.90;;;;;;6204502;23;20024;-76
2021/09/02 04:12:46;;;;;;;24.45;14.73;;;14.70;99.90;;;;;;6220232;23;20039;-77
2021/09/02 04:15:13;;;;;;;22.83;14.93;;;14.70;99.90;;;;;;6204135;23;20034;-77
2021/09/02 04:17:40;;;;;;;30.48;16.75;;;14.70;99.90;;;;;;6207541;23;20840;-76
2021/09/02 04:20:09;;;;;;;32.05;15.00;;;14.70;99.90;;;;;;6218999;22;20349;-77
2021/09/02 04:22:37;;;;;;;25.85;15.90;;;14.70;99.90;;;;;;6195941;23;20026;-76
2021/09/02 04:25:08;;;;;;;26.63;15.07;;;14.70;99.90;;;;;;6205765;22;20091;-77
2021/09/02 04:27:36;;;;;;;25.83;15.70;;;14.70;99.90;;;;;;6219830;23;20365;-76
2021/09/02 04:30:07;;;;;;;26.33;15.52;;;14.70;99.90;;;;;;6219384;23;20107;-76
2021/09/02 04:32:34;;;;;;;23.10;14.57;;;14.70;99.90;;;;;;6218460;23;20099;-76
2021/09/02 04:35:01;;;;;;;30.30;16.92;;;14.70;99.90;;;;;;6219591;23;20020;-76
2021/09/02 04:37:28;;;;;;;32.00;16.05;;;14.70;99.90;;;;;;6218303;22;20031;-76
2021/09/02 04:39:55;;;;;;;29.95;16.08;;;14.70;99.90;;;;;;6218791;23;20016;-76
2021/09/02 04:42:22;;;;;;;32.58;16.83;;;14.70;99.90;;;;;;6218394;22;20024;-76
2021/09/02 04:44:51;;;;;;;29.88;16.30;;;14.60;99.90;;;;;;6220153;23;20047;-76
2021/09/02 04:47:18;;;;;;;28.60;16.30;;;14.60;99.90;;;;;;6203455;23;20026;-76
2021/09/02 04:49:45;;;;;;;28.92;17.25;;;14.60;99.90;;;;;;6205478;23;20087;-76
2021/09/02 04:52:12;;;;;;;29.52;16.23;;;14.60;99.90;;;;;;6203927;23;20389;-76
2021/09/02 04:54:40;;;;;;;30.65;17.42;;;14.60;99.90;;;;;;6206748;23;20032;-76
2021/09/02 04:57:07;;;;;;;30.48;17.05;;;14.60;99.90;;;;;;6218345;22;20023;-77
2021/09/02 04:59:34;;;;;;;31.67;17.20;;;14.60;99.90;;;;;;6219561;23;20020;-76
2021/09/02 05:02:01;;;;;;;30.20;16.58;;;14.60;99.90;;;;;;6207003;23;20024;-76
2021/09/02 05:04:28;;;;;;;28.10;17.63;;;14.60;99.90;;;;;;6218532;22;20024;-76
2021/09/02 05:06:57;;;;;;;24.05;16.60;;;14.60;99.90;;;;;;6206882;23;20027;-76
2021/09/02 05:09:24;;;;;;;37.65;18.58;;;14.60;99.90;;;;;;6218131;22;20040;-76
2021/09/02 05:12:11;;;;;;;27.60;18.02;;;14.60;99.90;;;;;;6222524;22;20027;-76
2021/09/02 05:14:38;;;;;;;32.92;17.77;;;14.60;99.90;;;;;;6204190;23;20031;-76
2021/09/02 05:17:05;;;;;;;33.05;18.55;;;14.60;99.90;;;;;;6203382;23;20026;-76
2021/09/02 05:19:53;;;;;;;31.83;17.92;;;14.60;99.90;;;;;;6219342;23;20055;-75
2021/09/02 05:22:22;;;;;;;28.42;18.52;;;14.60;99.90;;;;;;6244654;22;20443;-76
2021/09/02 05:24:50;;;;;;;26.00;18.17;;;14.60;99.90;;;;;;6219596;23;20028;-76
2021/09/02 05:27:17;;;;;;;29.25;18.08;;;14.60;99.90;;;;;;6218315;22;20047;-76
2021/09/02 05:29:44;;;;;;;26.58;17.35;;;14.60;99.90;;;;;;6219337;23;20332;-75
2021/09/02 05:32:11;;;;;;;27.85;18.67;;;14.60;99.90;;;;;;6244655;22;20325;-76
2021/09/02 05:34:38;;;;;;;26.77;17.92;;;14.60;99.90;;;;;;6218738;23;20095;-76
2021/09/02 05:37:12;;;;;;;29.48;18.95;;;14.60;99.90;;;;;;6189266;23;20012;-76
2021/09/02 05:39:40;;;;;;;32.63;18.30;;;14.60;99.90;;;;;;6204027;23;20016;-76
2021/09/02 05:42:09;;;;;;;27.73;17.77;;;14.60;99.90;;;;;;6218118;22;20024;-75
2021/09/02 05:44:36;;;;;;;30.83;19.40;;;14.60;99.90;;;;;;6218879;23;20031;-76
2021/09/02 05:47:04;;;;;;;31.60;18.27;;;14.60;99.90;;;;;;6218769;23;20024;-76
2021/09/02 05:49:31;;;;;;;30.08;18.80;;;14.60;99.90;;;;;;6218182;23;20028;-76
2021/09/02 05:51:58;;;;;;;25.58;18.10;;;14.60;99.90;;;;;;6219016;23;20020;-76
2021/09/02 05:54:27;;;;;;;27.85;18.25;;;14.60;99.90;;;;;;6218439;22;20039;-76
2021/09/02 05:56:54;;;;;;;26.88;17.58;;;14.60;99.90;;;;;;6219053;23;20024;-75
2021/09/02 05:59:21;;;;;;;29.67;18.17;;;14.60;99.90;;;;;;6217787;22;20017;-75
2021/09/02 06:01:48;;;;;;;24.40;17.33;;;14.60;99.90;;;;;;6218709;23;20021;-76
2021/09/02 06:04:15;;;;;;;29.02;17.80;;;14.60;99.90;;;;;;6218132;22;20047;-75
2021/09/02 06:06:42;;;;;;;26.30;17.38;;;14.70;99.90;;;;;;6218916;23;20433;-75
2021/09/02 06:09:09;;;;;;;28.92;18.33;;;14.60;99.90;;;;;;6217927;22;20016;-75
2021/09/02 06:11:36;;;;;;;27.58;16.80;;;14.60;99.90;;;;;;6218708;23;20294;-75
2021/09/02 06:14:03;;;;;;;26.15;17.25;;;14.70;99.90;;;;;;6218246;23;20333;-76
2021/09/02 06:16:30;;;;;;;30.80;17.67;;;14.70;99.90;;;;;;6212360;23;20025;-76
2021/09/02 06:18:57;;;;;;;28.63;18.05;;;14.70;99.90;;;;;;6213725;23;20020;-76
2021/09/02 06:21:24;;;;;;;27.58;17.58;;;14.80;99.90;;;;;;6212779;22;20318;-76
2021/09/02 06:23:51;;;;;;;26.05;16.83;;;14.80;99.90;;;;;;6212864;23;20067;-75
2021/09/02 06:26:18;;;;;;;24.48;16.08;;;14.80;99.90;;;;;;6212813;22;20031;-76
2021/09/02 06:28:45;;;;;;;23.02;16.30;;;14.90;99.90;;;;;;6213382;23;20031;-75
2021/09/02 06:31:12;;;;;;;25.52;17.00;;;14.90;99.90;;;;;;6212686;22;20028;-75
2021/09/02 06:33:40;;;;;;;23.92;16.25;;;15.00;99.90;;;;;;6213400;23;20017;-75
2021/09/02 06:36:07;;;;;;;32.90;17.90;;;15.00;99.90;;;;;;6212650;22;20028;-76
2021/09/02 06:38:34;;;;;;;23.85;17.13;;;15.00;99.90;;;;;;6213244;23;20460;-76
2021/09/02 06:41:01;;;;;;;28.88;17.10;;;15.10;99.90;;;;;;6201654;23;20012;-76
2021/09/02 06:43:28;;;;;;;29.73;16.60;;;15.10;99.90;;;;;;6212198;22;20079;-76
2021/09/02 06:45:55;;;;;;;27.67;15.35;;;15.20;99.90;;;;;;6213057;23;20039;-76
2021/09/02 06:48:22;;;;;;;26.35;16.35;;;15.20;99.90;;;;;;6212559;22;20021;-76
2021/09/02 06:50:49;;;;;;;24.92;16.63;;;15.30;99.90;;;;;;6213149;23;20377;-76
2021/09/02 06:53:16;;;;;;;24.98;16.42;;;15.30;99.90;;;;;;6212549;22;20043;-75
2021/09/02 06:55:43;;;;;;;23.83;16.23;;;15.40;99.90;;;;;;6213269;23;20024;-75
2021/09/02 06:58:10;;;;;;;23.50;15.88;;;15.40;99.90;;;;;;6212347;22;20020;-75
2021/09/02 07:00:36;;;;;;;26.20;16.75;;;15.50;99.90;;;;;;6213062;23;20354;-76
2021/09/02 07:03:04;;;;;;;23.98;16.48;;;15.60;99.90;;;;;;6212997;23;20398;-75
2021/09/02 07:05:33;;;;;;;25.02;16.98;;;15.60;99.90;;;;;;6212448;23;20034;-75
2021/09/02 07:08:00;;;;;;;24.67;16.25;;;15.60;99.90;;;;;;6213149;23;20024;-76
2021/09/02 07:10:35;;;;;;;23.45;16.00;;;15.70;99.90;;;;;;6212694;22;20028;-76
2021/09/02 07:13:04;;;;;;;28.02;16.55;;;15.70;99.90;;;;;;6213070;23;20437;-76
2021/09/02 07:15:31;;;;;;;23.15;15.40;;;15.80;99.90;;;;;;6209665;23;20075;-76
2021/09/02 07:17:58;;;;;;;23.38;16.45;;;15.90;99.90;;;;;;6209922;23;20039;-76
2021/09/02 07:20:25;;;;;;;21.02;16.00;;;15.90;99.90;;;;;;6193943;22;20069;-76
2021/09/02 07:22:52;;;;;;;27.23;16.60;;;15.90;99.90;;;;;;6210249;23;20017;-76
2021/09/02 07:25:19;;;;;;;22.73;15.73;;;16.00;99.90;;;;;;6209097;22;20489;-76
2021/09/02 07:49:23;;;;;;;20.38;14.80;;;16.40;99.90;;;;;;5511923;22;15751230;-78
2021/09/02 07:52:36;;;;;;;23.90;14.95;;;16.70;99.90;;;;;;6158220;23;20025;-78
2021/09/02 07:56:01;;;;;;;22.23;15.75;;;16.80;99.90;;;;;;5984104;23;20035;-77
2021/09/02 07:59:55;;;;;;;;;;;;;;;;;;;;;
2021/09/02 08:22:47;;;;;;;;;;;;;;;;;;;;;
2021/09/02 09:05:58;;;;;;;;;;;;;;;;;;;;;
2021/09/02 09:09:41;;;;;;;;;;;;;;;;;;;;;
2021/09/02 09:50:43;;;;;;;17.15;10.55;;;20.20;99.90;;;;;;6191651;22;20023;-76
2021/09/02 10:37:43;;;;;;;12.75;8.75;;;21.50;99.90;;;;;;6193344;22;20067;-76
2021/09/02 10:40:30;;;;;;;;;;;;;;;;;;;;;
2021/09/02 10:43:01;;;;;;;10.98;8.55;;;21.60;99.90;;;;;;6221041;22;20028;-76
2021/09/02 10:45:42;;;;;;;13.43;8.98;;;21.70;99.90;;;;;;6181553;22;20095;-77
2021/09/02 10:48:46;;;;;;;12.30;8.43;;;21.70;99.90;;;;;;6217592;23;20012;-76
2021/09/02 10:51:36;;;;;;;14.55;8.40;;;21.70;99.90;;;;;;6177111;22;20103;-76
2021/09/02 11:01:31;;;;;;;12.07;8.10;;;22.00;99.90;;;;;;6238570;22;20203;-75
2021/09/02 11:04:14;;;;;;;11.88;7.47;;;22.10;99.90;;;;;;6226959;23;20020;-76
2021/09/02 11:06:48;;;;;;;10.98;7.68;;;22.20;99.90;;;;;;6216639;22;20020;-76
2021/09/02 11:09:32;;;;;;;11.13;7.47;;;22.30;99.90;;;;;;6232733;22;20024;-76
2021/09/02 11:12:01;;;;;;;12.52;8.15;;;22.40;99.90;;;;;;6209710;23;20026;-75
2021/09/02 11:14:28;;;;;;;;;;;22.40;99.90;;;;;;6241309;22;20044;-75
2021/09/02 11:17:10;;;;;;;9.80;7.00;;;22.40;99.90;;;;;;6232711;22;19949;-75
2021/09/02 11:19:50;;;;;;;9.18;7.00;;;22.40;99.90;;;;;;6242869;23;20067;-77
2021/09/02 11:22:26;;;;;;;10.93;7.10;;;22.50;99.90;;;;;;6230422;22;20027;-75
2021/09/02 11:24:54;;;;;;;12.52;7.65;;;22.60;99.90;;;;;;6243568;23;20024;-75
2021/09/02 11:27:33;;;;;;;12.02;8.25;;;22.70;99.90;;;;;;6242021;22;20440;-75
2021/09/02 11:30:25;;;;;;;10.52;7.63;;;22.70;99.90;;;;;;6232069;22;20317;-75
2021/09/02 11:33:01;;;;;;;9.43;6.78;;;22.80;99.90;;;;;;6242203;23;20087;-75
2021/09/02 11:35:30;;;;;;;11.95;7.40;;;22.80;99.90;;;;;;6232610;22;20024;-77
2021/09/02 11:37:57;;;;;;;11.45;7.85;;;22.80;99.90;;;;;;6243189;23;20086;-76
2021/09/02 11:40:37;;;;;;;12.20;7.32;;;22.80;99.90;;;;;;6230566;22;20024;-77
2021/09/02 11:43:58;;;;;;;;;;;;;;;;;;;;;
2021/09/02 11:46:55;;;;;;;9.10;7.13;;;23.00;99.90;;;;;;6060374;23;20032;-78
2021/09/02 11:49:58;;;;;;;8.52;7.57;;;22.90;99.90;;;;;;6107434;23;20571;-78
2021/09/02 11:52:46;;;;;;;8.65;6.90;;;22.90;99.90;;;;;;6094248;23;20026;-77
2021/09/02 11:55:50;;;;;;;;;;;;;;;;;;;;;
2021/09/02 11:58:34;;;;;;;8.60;6.50;;;23.10;99.90;;;;;;6115270;23;20453;-77
2021/09/02 12:05:37;;;;;;;;;;;;;;;;;;;;;
2021/09/02 12:09:14;;;;;;;;;;;;;;;;;;;;;
2021/09/02 12:16:04;;;;;;;10.07;6.18;;;23.30;99.90;;;;;;6182754;22;20332;-78
2021/09/02 12:30:40;;;;;;;9.18;6.32;;;23.60;99.90;;;;;;6109232;23;20032;-77
2021/09/02 12:34:04;;;;;;;;;;;;;;;;;;;;;
2021/09/02 12:40:01;;;;;;;8.02;5.38;;;23.80;99.90;;;;;;5935532;24;20028;-77
2021/09/02 12:43:23;;;;;;;7.78;5.75;;;23.90;99.90;;;;;;5878207;23;20027;-77
2021/09/02 12:47:13;;;;;;;10.93;6.00;;;24.00;99.90;;;;;;5781990;24;20034;-77
2021/09/02 12:49:48;;;;;;;10.88;5.70;;;24.00;99.90;;;;;;5810210;24;20018;-74
2021/09/02 12:52:19;;;;;;;10.13;6.50;;;24.10;99.90;;;;;;5856947;24;20022;-75
2021/09/02 12:55:30;;;;;;;9.27;5.82;;;24.20;99.90;;;;;;5868868;24;20026;-77
2021/09/02 12:57:58;;;;;;;6.28;5.55;;;24.20;99.90;;;;;;5920706;24;20027;-76
2021/09/02 13:00:32;;;;;;;18.40;6.10;;;24.30;99.90;;;;;;5977495;24;20036;-75
2021/09/02 13:03:05;;;;;;;10.13;5.53;;;24.40;99.90;;;;;;6010898;23;20520;-76
2021/09/02 13:05:33;;;;;;;8.45;5.60;;;24.50;99.90;;;;;;6211369;23;20031;-75
2021/09/02 13:08:03;;;;;;;10.52;6.40;;;24.50;99.90;;;;;;6187634;23;20021;-75
2021/09/02 13:10:34;;;;;;;8.60;5.63;;;24.50;99.90;;;;;;6186118;23;20024;-75
2021/09/02 13:13:03;;;;;;;9.35;5.35;;;24.50;99.90;;;;;;6187433;23;20017;-76
2021/09/02 13:15:30;;;;;;;7.40;5.82;;;24.50;99.90;;;;;;6185925;23;20091;-74
2021/09/02 13:17:57;;;;;;;7.60;5.78;;;24.40;99.90;;;;;;6187575;23;20078;-76
2021/09/02 13:20:26;;;;;;;7.53;6.00;;;24.30;99.90;;;;;;6186445;23;21753;-75
2021/09/02 13:22:53;;;;;;;13.50;6.03;;;24.30;99.90;;;;;;6187266;23;20021;-74
2021/09/02 13:25:21;;;;;;;8.35;5.45;;;24.30;99.90;;;;;;6186311;23;20017;-74
2021/09/02 13:27:48;;;;;;;12.38;5.47;;;24.30;99.90;;;;;;6187549;23;20044;-74
2021/09/02 13:30:18;;;;;;;11.18;5.55;;;24.40;99.90;;;;;;6186285;23;20028;-75
2021/09/02 13:32:46;;;;;;;10.88;5.60;;;24.40;99.90;;;;;;6187957;23;20020;-75
2021/09/02 13:35:14;;;;;;;10.07;5.88;;;24.40;99.90;;;;;;6186848;23;20021;-75
2021/09/02 13:37:41;;;;;;;8.40;5.70;;;24.40;99.90;;;;;;6187737;23;20746;-75
2021/09/02 13:40:11;;;;;;;8.45;5.60;;;24.40;99.90;;;;;;6187010;23;20259;-75
2021/09/02 13:42:38;;;;;;;9.35;5.30;;;24.50;99.90;;;;;;6187614;23;20021;-74
2021/09/02 13:45:07;;;;;;;;;;;24.60;99.90;;;;;;6187363;23;20017;-75
2021/09/02 13:47:45;;;;;;;12.20;6.18;;;24.60;99.90;;;;;;6212536;23;19939;-77
2021/09/02 13:50:13;;;;;;;7.40;5.68;;;24.70;99.90;;;;;;6186880;23;20029;-75
2021/09/02 13:52:41;;;;;;;10.05;5.80;;;24.70;99.90;;;;;;6187001;23;20100;-75
2021/09/02 13:55:11;;;;;;;9.18;5.90;;;24.70;99.90;;;;;;6186452;23;20051;-75
2021/09/02 13:57:41;;;;;;;9.00;5.50;;;24.80;99.90;;;;;;6186937;23;20434;-76
2021/09/02 14:15:16;;;;;;;;;;;;;;;;;;;;;
2021/09/02 14:18:19;;;;;;;;;;;;;;;;;;;;;
2021/09/02 14:21:48;;;;;;;;;;;;;;;;;;;;;
2021/09/02 14:24:34;;;;;;;8.57;5.93;;;24.90;99.90;;;;;;5931841;23;20146;-77
2021/09/02 14:27:05;;;;;;;7.88;6.45;;;24.80;99.90;;;;;;5934805;24;20020;-77
2021/09/02 16:06:32;;;;;;;12.75;8.05;;;24.40;99.90;;;;;;6240839;22;20054;-76
2021/09/02 16:09:06;;;;;;;18.55;8.90;;;24.40;99.90;;;;;;6219199;23;20313;-74
2021/09/02 16:11:36;;;;;;;15.93;7.90;;;24.40;99.90;;;;;;6218189;23;20028;-76
2021/09/02 16:14:06;;;;;;;16.75;8.60;;;24.40;99.90;;;;;;6218299;23;20066;-76
2021/09/02 16:17:43;;;;;;;11.70;7.85;;;24.40;99.90;;;;;;6170792;23;20095;-78
2021/09/02 16:28:08;;;;;;;12.05;7.85;;;24.30;99.90;;;;;;5965615;23;20619;-77
2021/09/02 16:30:58;;;;;;;13.75;8.57;;;24.20;99.90;;;;;;5905978;24;20029;-77
2021/09/02 16:34:05;;;;;;;13.02;7.82;;;24.10;99.90;;;;;;5787541;24;20073;-77
2021/09/02 16:41:07;;;;;;;12.52;7.93;;;24.10;99.90;;;;;;5572321;25;20034;-77
2021/09/02 16:43:37;;;;;;;15.38;8.30;;;24.10;99.90;;;;;;5570909;25;20097;-77
2021/09/02 16:46:54;;;;;;;;;;;;;;;;;;;;;
2021/09/02 17:00:31;;;;;;;;;;;;;;;;;;;;;
2021/09/02 17:03:40;;;;;;;;;;;;;;;;;;;;;
2021/09/02 17:06:25;;;;;;;12.43;8.27;;;23.60;99.90;;;;;;4973143;28;20495;-77
2021/09/02 17:09:16;;;;;;;14.00;9.02;;;23.60;99.90;;;;;;4993153;28;20461;-79
2021/09/02 17:12:39;;;;;;;15.52;8.63;;;23.70;99.90;;;;;;4923171;28;20721;-77
2021/09/02 17:15:24;;;;;;;13.07;8.32;;;23.70;99.90;;;;;;4918786;28;21301;-77
2021/09/02 17:21:25;;;;;;;12.82;8.73;;;23.70;99.90;;;;;;4884800;29;20107;-77
2021/09/02 17:24:18;;;;;;;11.85;8.40;;;23.60;99.90;;;;;;4883273;29;20051;-77
2021/09/02 17:26:56;;;;;;;15.18;9.05;;;23.70;99.90;;;;;;4916852;28;20108;-76
2021/09/02 17:29:41;;;;;;;14.32;8.95;;;23.60;99.90;;;;;;4899091;28;20052;-76
2021/09/02 17:32:09;;;;;;;14.35;9.15;;;23.50;99.90;;;;;;4926030;28;20057;-75
2021/09/02 17:34:46;;;;;;;13.52;9.15;;;23.40;99.90;;;;;;4938391;28;20106;-75
2021/09/02 17:37:47;;;;;;;15.10;9.40;;;23.30;99.90;;;;;;4889780;29;20509;-77
2021/09/02 17:40:48;;;;;;;;;;;;;;;;;;;;;
2021/09/02 17:43:19;;;;;;;14.50;9.23;;;23.10;99.90;;;;;;4910411;28;20043;-77
2021/09/02 17:45:53;;;;;;;14.85;9.57;;;23.00;99.90;;;;;;4906357;28;20055;-77
2021/09/02 17:48:21;;;;;;;15.20;10.10;;;22.80;99.90;;;;;;4925514;28;20056;-77
2021/09/02 17:50:51;;;;;;;14.00;9.90;;;22.80;99.90;;;;;;4910408;29;20369;-77
2021/09/02 17:53:18;;;;;;;13.52;9.60;;;22.70;99.90;;;;;;4900140;29;20056;-77
2021/09/02 17:55:54;;;;;;;13.35;8.75;;;22.70;99.90;;;;;;4936632;28;20554;-77
2021/09/02 17:58:31;;;;;;;14.90;9.90;;;22.80;99.90;;;;;;4976082;28;20045;-77
2021/09/02 18:01:07;;;;;;;15.82;9.52;;;22.80;99.90;;;;;;5005716;28;20057;-77
2021/09/02 18:03:46;;;;;;;15.57;8.90;;;22.90;99.90;;;;;;4963268;28;20415;-76
2021/09/02 18:06:29;;;;;;;15.55;8.65;;;23.00;99.90;;;;;;4984646;28;20429;-76
2021/09/02 18:09:13;;;;;;;14.68;9.55;;;23.20;99.90;;;;;;4954901;28;20133;-76
2021/09/02 18:12:18;;;;;;;15.02;8.65;;;23.40;99.90;;;;;;4949386;28;20225;-77
2021/09/02 18:15:08;;;;;;;14.10;9.32;;;23.70;99.90;;;;;;4950756;28;20051;-76
2021/09/02 18:18:26;;;;;;;15.00;9.35;;;24.00;99.90;;;;;;4942595;28;20046;-76
2021/09/02 18:21:20;;;;;;;12.90;9.18;;;24.00;99.90;;;;;;4927701;28;20134;-77
2021/09/02 18:24:41;;;;;;;13.30;8.65;;;24.00;99.90;;;;;;4868356;29;20696;-77
2021/09/02 18:27:40;;;;;;;15.05;10.10;;;23.90;99.90;;;;;;4889497;29;20151;-76
2021/09/02 18:30:24;;;;;;;14.63;8.63;;;23.40;99.90;;;;;;4909150;28;20508;-77
2021/09/02 18:32:58;;;;;;;14.45;9.07;;;23.10;99.90;;;;;;4970788;28;20047;-76
2021/09/02 18:35:32;;;;;;;21.42;10.20;;;22.90;99.90;;;;;;4905667;28;20059;-76
2021/09/02 18:38:22;;;;;;;15.77;10.23;;;22.60;99.90;;;;;;4901253;29;20132;-76
2021/09/02 18:40:58;;;;;;;14.73;10.90;;;22.40;99.90;;;;;;4905224;29;20096;-76
2021/09/02 18:43:34;;;;;;;14.70;11.02;;;22.10;99.90;;;;;;4907827;29;20057;-76
2021/09/02 18:46:07;;;;;;;15.10;10.60;;;21.80;99.90;;;;;;4908652;29;20419;-76
2021/09/02 18:48:35;;;;;;;17.25;10.48;;;21.60;99.90;;;;;;4908727;29;20131;-77
2021/09/02 18:51:09;;;;;;;19.83;12.90;;;21.40;99.90;;;;;;4910381;29;20056;-76
2021/09/02 18:53:45;;;;;;;23.75;10.98;;;21.20;99.90;;;;;;4878162;29;20100;-76
2021/09/02 18:56:17;;;;;;;18.00;11.82;;;21.00;99.90;;;;;;4938412;28;20055;-75
2021/09/02 18:58:45;;;;;;;16.50;11.45;;;20.80;99.90;;;;;;4933904;28;20046;-75
2021/09/02 19:01:18;;;;;;;18.75;12.02;;;20.70;99.90;;;;;;4933459;28;20480;-75
2021/09/02 19:03:51;;;;;;;22.33;11.32;;;20.50;99.90;;;;;;5001530;28;20105;-75
2021/09/02 19:06:22;;;;;;;20.25;11.90;;;20.40;99.90;;;;;;5011805;28;20035;-76
2021/09/02 19:08:51;;;;;;;19.88;12.85;;;20.30;99.90;;;;;;4998149;28;20478;-75